sensor_id;sensor_type;location;lat;lon;timestamp;temperature;humidity
18240;DHT22;9244;50.828;4.718;2024-03-17T00:00:23;7.00;99.90
18240;DHT22;9244;50.828;4.718;2024-03-17T00:02:50;6.90;99.90
18240;DHT22;9244;50.828;4.718;2024-03-17T00:05:16;6.90;99.90
18240;DHT22;9244;50.828;4.718;2024-03-17T00:07:44;6.90;99.90
18240;DHT22;9244;50.828;4.718;2024-03-17T00:10:10;6.90;99.90
18240;DHT22;9244;50.828;4.718;2024-03-17T00:12:36;6.90;99.90
18240;DHT22;9244;50.828;4.718;2024-03-17T00:15:05;6.80;99.90
18240;DHT22;9244;50.828;4.718;2024-03-17T00:17:34;6.80;99.90
18240;DHT22;9244;50.828;4.718;2024-03-17T00:20:02;6.70;99.90
18240;DHT22;9244;50.828;4.718;2024-03-17T00:22:34;6.70;99.90
18240;DHT22;9244;50.828;4.718;2024-03-17T00:25:02;6.70;99.90
18240;DHT22;9244;50.828;4.718;2024-03-17T00:27:30;6.70;99.90
18240;DHT22;9244;50.828;4.718;2024-03-17T00:29:56;6.70;99.90
18240;DHT22;9244;50.828;4.718;2024-03-17T00:32:21;6.70;99.90
18240;DHT22;9244;50.828;4.718;2024-03-17T00:34:49;6.70;99.90
18240;DHT22;9244;50.828;4.718;2024-03-17T00:37:14;6.60;99.90
18240;DHT22;9244;50.828;4.718;2024-03-17T00:39:40;6.60;99.90
18240;DHT22;9244;50.828;4.718;2024-03-17T00:42:06;6.50;99.90
18240;DHT22;9244;50.828;4.718;2024-03-17T00:44:32;6.50;99.90
18240;DHT22;9244;50.828;4.718;2024-03-17T00:47:00;6.50;99.90
18240;DHT22;9244;50.828;4.718;2024-03-17T00:49:25;6.50;99.90
18240;DHT22;9244;50.828;4.718;2024-03-17T00:51:53;6.50;99.90
18240;DHT22;9244;50.828;4.718;2024-03-17T00:54:19;6.40;99.90
18240;DHT22;9244;50.828;4.718;2024-03-17T00:56:45;6.40;99.90
18240;DHT22;9244;50.828;4.718;2024-03-17T00:59:10;6.40;99.90
18240;DHT22;9244;50.828;4.718;2024-03-17T01:01:36;6.40;99.90
18240;DHT22;9244;50.828;4.718;2024-03-17T01:04:04;6.40;99.90
18240;DHT22;9244;50.828;4.718;2024-03-17T01:06:30;6.40;99.90
18240;DHT22;9244;50.828;4.718;2024-03-17T01:08:57;6.40;99.90
18240;DHT22;9244;50.828;4.718;2024-03-17T01:11:27;6.50;99.90
18240;DHT22;9244;50.828;4.718;2024-03-17T01:13:53;6.60;99.90
18240;DHT22;9244;50.828;4.718;2024-03-17T01:16:19;6.60;99.90
18240;DHT22;9244;50.828;4.718;2024-03-17T01:18:44;6.70;99.90
18240;DHT22;9244;50.828;4.718;2024-03-17T01:21:11;6.70;99.90
18240;DHT22;9244;50.828;4.718;2024-03-17T01:23:37;6.80;99.90
18240;DHT22;9244;50.828;4.718;2024-03-17T01:26:05;6.80;99.90
18240;DHT22;9244;50.828;4.718;2024-03-17T01:28:31;6.90;99.90
18240;DHT22;9244;50.828;4.718;2024-03-17T01:30:56;6.90;99.90
18240;DHT22;9244;50.828;4.718;2024-03-17T01:33:22;7.00;99.90
18240;DHT22;9244;50.828;4.718;2024-03-17T01:35:48;7.00;99.90
18240;DHT22;9244;50.828;4.718;2024-03-17T01:38:13;7.00;99.90
18240;DHT22;9244;50.828;4.718;2024-03-17T01:40:39;7.00;99.90
18240;DHT22;9244;50.828;4.718;2024-03-17T01:43:07;6.90;99.90
18240;DHT22;9244;50.828;4.718;2024-03-17T01:45:37;7.00;99.90
18240;DHT22;9244;50.828;4.718;2024-03-17T01:48:04;7.00;99.90
18240;DHT22;9244;50.828;4.718;2024-03-17T01:50:38;7.00;99.90
18240;DHT22;9244;50.828;4.718;2024-03-17T01:53:07;7.00;99.90
18240;DHT22;9244;50.828;4.718;2024-03-17T01:55:36;7.00;99.90
18240;DHT22;9244;50.828;4.718;2024-03-17T01:58:05;7.00;99.90
18240;DHT22;9244;50.828;4.718;2024-03-17T02:00:36;7.10;99.90
18240;DHT22;9244;50.828;4.718;2024-03-17T02:03:08;7.10;99.90
18240;DHT22;9244;50.828;4.718;2024-03-17T02:05:38;7.10;99.90
18240;DHT22;9244;50.828;4.718;2024-03-17T02:08:06;7.20;99.90
18240;DHT22;9244;50.828;4.718;2024-03-17T02:10:33;7.20;99.90
18240;DHT22;9244;50.828;4.718;2024-03-17T02:13:00;7.20;99.90
18240;DHT22;9244;50.828;4.718;2024-03-17T02:15:25;7.30;99.90
18240;DHT22;9244;50.828;4.718;2024-03-17T02:17:51;7.30;99.90
18240;DHT22;9244;50.828;4.718;2024-03-17T02:20:17;7.30;99.90
18240;DHT22;9244;50.828;4.718;2024-03-17T02:22:43;7.30;99.90
18240;DHT22;9244;50.828;4.718;2024-03-17T02:25:09;7.30;99.90
18240;DHT22;9244;50.828;4.718;2024-03-17T02:27:37;7.40;99.90
18240;DHT22;9244;50.828;4.718;2024-03-17T02:30:04;7.40;99.90
18240;DHT22;9244;50.828;4.718;2024-03-17T02:32:36;7.40;99.90
18240;DHT22;9244;50.828;4.718;2024-03-17T02:35:02;7.40;99.90
18240;DHT22;9244;50.828;4.718;2024-03-17T02:37:30;7.50;99.90
18240;DHT22;9244;50.828;4.718;2024-03-17T02:39:56;7.50;99.90
18240;DHT22;9244;50.828;4.718;2024-03-17T02:42:21;7.50;99.90
18240;DHT22;9244;50.828;4.718;2024-03-17T02:44:47;7.50;99.90
18240;DHT22;9244;50.828;4.718;2024-03-17T02:47:13;7.50;99.90
18240;DHT22;9244;50.828;4.718;2024-03-17T02:49:42;7.60;99.90
18240;DHT22;9244;50.828;4.718;2024-03-17T02:52:13;7.50;99.90
18240;DHT22;9244;50.828;4.718;2024-03-17T02:54:39;7.60;99.90
18240;DHT22;9244;50.828;4.718;2024-03-17T02:57:07;7.60;99.90
18240;DHT22;9244;50.828;4.718;2024-03-17T02:59:33;7.60;99.90
18240;DHT22;9244;50.828;4.718;2024-03-17T03:01:59;7.60;99.90
18240;DHT22;9244;50.828;4.718;2024-03-17T03:04:25;7.60;99.90
18240;DHT22;9244;50.828;4.718;2024-03-17T03:06:53;7.60;99.90
18240;DHT22;9244;50.828;4.718;2024-03-17T03:09:19;7.60;99.90
18240;DHT22;9244;50.828;4.718;2024-03-17T03:11:57;7.60;99.90
18240;DHT22;9244;50.828;4.718;2024-03-17T03:14:22;7.50;99.90
18240;DHT22;9244;50.828;4.718;2024-03-17T03:16:48;7.50;99.90
18240;DHT22;9244;50.828;4.718;2024-03-17T03:19:15;7.50;99.90
18240;DHT22;9244;50.828;4.718;2024-03-17T03:21:41;7.60;99.90
18240;DHT22;9244;50.828;4.718;2024-03-17T03:24:06;7.60;99.90
18240;DHT22;9244;50.828;4.718;2024-03-17T03:26:32;7.60;99.90
18240;DHT22;9244;50.828;4.718;2024-03-17T03:28:59;7.60;99.90
18240;DHT22;9244;50.828;4.718;2024-03-17T03:31:24;7.60;99.90
18240;DHT22;9244;50.828;4.718;2024-03-17T03:33:50;7.60;99.90
18240;DHT22;9244;50.828;4.718;2024-03-17T03:36:18;7.60;99.90
18240;DHT22;9244;50.828;4.718;2024-03-17T03:38:44;7.50;99.90
18240;DHT22;9244;50.828;4.718;2024-03-17T03:41:15;7.60;99.90
18240;DHT22;9244;50.828;4.718;2024-03-17T03:43:41;7.60;99.90
18240;DHT22;9244;50.828;4.718;2024-03-17T03:46:09;7.60;99.90
18240;DHT22;9244;50.828;4.718;2024-03-17T03:48:35;7.60;99.90
18240;DHT22;9244;50.828;4.718;2024-03-17T03:51:07;7.60;99.90
18240;DHT22;9244;50.828;4.718;2024-03-17T03:53:36;7.60;99.90
18240;DHT22;9244;50.828;4.718;2024-03-17T03:56:03;7.60;99.90
18240;DHT22;9244;50.828;4.718;2024-03-17T03:58:35;7.70;99.90
18240;DHT22;9244;50.828;4.718;2024-03-17T04:01:07;7.60;99.90
18240;DHT22;9244;50.828;4.718;2024-03-17T04:03:34;7.60;99.90
18240;DHT22;9244;50.828;4.718;2024-03-17T04:06:08;7.70;99.90
18240;DHT22;9244;50.828;4.718;2024-03-17T04:08:36;7.60;99.90
18240;DHT22;9244;50.828;4.718;2024-03-17T04:11:03;7.60;99.90
18240;DHT22;9244;50.828;4.718;2024-03-17T04:13:29;7.60;99.90
18240;DHT22;9244;50.828;4.718;2024-03-17T04:15:56;7.60;99.90
18240;DHT22;9244;50.828;4.718;2024-03-17T04:18:23;7.50;99.90
18240;DHT22;9244;50.828;4.718;2024-03-17T04:20:53;7.60;99.90
18240;DHT22;9244;50.828;4.718;2024-03-17T04:23:22;7.50;99.90
18240;DHT22;9244;50.828;4.718;2024-03-17T04:25:51;7.50;99.90
18240;DHT22;9244;50.828;4.718;2024-03-17T04:28:18;7.50;99.90
18240;DHT22;9244;50.828;4.718;2024-03-17T04:30:43;7.40;99.90
18240;DHT22;9244;50.828;4.718;2024-03-17T04:33:10;7.40;99.90
18240;DHT22;9244;50.828;4.718;2024-03-17T04:35:37;7.30;99.90
18240;DHT22;9244;50.828;4.718;2024-03-17T04:38:03;7.20;99.90
18240;DHT22;9244;50.828;4.718;2024-03-17T04:40:29;7.10;99.90
18240;DHT22;9244;50.828;4.718;2024-03-17T04:42:57;7.10;99.90
18240;DHT22;9244;50.828;4.718;2024-03-17T04:45:25;7.20;99.90
18240;DHT22;9244;50.828;4.718;2024-03-17T04:47:51;7.20;99.90
18240;DHT22;9244;50.828;4.718;2024-03-17T04:50:17;7.10;99.90
18240;DHT22;9244;50.828;4.718;2024-03-17T04:52:46;7.10;99.90
18240;DHT22;9244;50.828;4.718;2024-03-17T04:55:11;7.10;99.90
18240;DHT22;9244;50.828;4.718;2024-03-17T04:57:37;7.00;99.90
18240;DHT22;9244;50.828;4.718;2024-03-17T05:00:03;7.00;99.90
18240;DHT22;9244;50.828;4.718;2024-03-17T05:02:32;7.00;99.90
18240;DHT22;9244;50.828;4.718;2024-03-17T05:04:59;7.00;99.90
18240;DHT22;9244;50.828;4.718;2024-03-17T05:07:24;6.90;99.90
18240;DHT22;9244;50.828;4.718;2024-03-17T05:09:50;6.90;99.90
18240;DHT22;9244;50.828;4.718;2024-03-17T05:12:16;7.00;99.90
18240;DHT22;9244;50.828;4.718;2024-03-17T05:14:42;6.90;99.90
18240;DHT22;9244;50.828;4.718;2024-03-17T05:17:08;7.00;99.90
18240;DHT22;9244;50.828;4.718;2024-03-17T05:19:33;6.90;99.90
18240;DHT22;9244;50.828;4.718;2024-03-17T05:22:01;7.00;99.90
18240;DHT22;9244;50.828;4.718;2024-03-17T05:24:27;7.00;99.90
18240;DHT22;9244;50.828;4.718;2024-03-17T05:26:52;7.10;99.90
18240;DHT22;9244;50.828;4.718;2024-03-17T05:29:18;7.10;99.90
18240;DHT22;9244;50.828;4.718;2024-03-17T05:31:44;7.10;99.90
18240;DHT22;9244;50.828;4.718;2024-03-17T05:34:10;7.10;99.90
18240;DHT22;9244;50.828;4.718;2024-03-17T05:36:36;7.10;99.90
18240;DHT22;9244;50.828;4.718;2024-03-17T05:39:03;7.10;99.90
18240;DHT22;9244;50.828;4.718;2024-03-17T05:41:28;7.10;99.90
18240;DHT22;9244;50.828;4.718;2024-03-17T05:43:54;7.10;99.90
18240;DHT22;9244;50.828;4.718;2024-03-17T05:46:24;7.00;99.90
18240;DHT22;9244;50.828;4.718;2024-03-17T05:48:53;7.10;99.90
18240;DHT22;9244;50.828;4.718;2024-03-17T05:51:19;7.20;99.90
18240;DHT22;9244;50.828;4.718;2024-03-17T05:53:45;7.20;99.90
18240;DHT22;9244;50.828;4.718;2024-03-17T05:56:11;7.30;99.90
18240;DHT22;9244;50.828;4.718;2024-03-17T05:58:38;7.40;99.90
18240;DHT22;9244;50.828;4.718;2024-03-17T06:01:05;7.40;99.90
18240;DHT22;9244;50.828;4.718;2024-03-17T06:03:33;7.50;99.90
18240;DHT22;9244;50.828;4.718;2024-03-17T06:06:01;7.60;99.90
18240;DHT22;9244;50.828;4.718;2024-03-17T06:08:27;7.60;99.90
18240;DHT22;9244;50.828;4.718;2024-03-17T06:10:52;7.60;99.90
18240;DHT22;9244;50.828;4.718;2024-03-17T06:13:18;7.60;99.90
18240;DHT22;9244;50.828;4.718;2024-03-17T06:15:46;7.70;99.90
18240;DHT22;9244;50.828;4.718;2024-03-17T06:18:15;7.70;99.90
18240;DHT22;9244;50.828;4.718;2024-03-17T06:20:46;7.70;99.90
18240;DHT22;9244;50.828;4.718;2024-03-17T06:23:13;7.70;99.90
18240;DHT22;9244;50.828;4.718;2024-03-17T06:25:46;7.70;99.90
18240;DHT22;9244;50.828;4.718;2024-03-17T06:28:14;7.80;99.90
18240;DHT22;9244;50.828;4.718;2024-03-17T06:30:44;7.80;99.90
18240;DHT22;9244;50.828;4.718;2024-03-17T06:33:15;7.90;99.90
18240;DHT22;9244;50.828;4.718;2024-03-17T06:35:41;7.90;99.90
18240;DHT22;9244;50.828;4.718;2024-03-17T06:38:07;8.00;99.90
18240;DHT22;9244;50.828;4.718;2024-03-17T06:40:39;8.00;99.90
18240;DHT22;9244;50.828;4.718;2024-03-17T06:43:05;8.10;99.90
18240;DHT22;9244;50.828;4.718;2024-03-17T06:45:31;8.10;99.90
18240;DHT22;9244;50.828;4.718;2024-03-17T06:47:57;8.20;99.90
18240;DHT22;9244;50.828;4.718;2024-03-17T06:50:23;8.20;99.90
18240;DHT22;9244;50.828;4.718;2024-03-17T06:52:48;8.30;99.90
18240;DHT22;9244;50.828;4.718;2024-03-17T06:55:14;8.40;99.90
18240;DHT22;9244;50.828;4.718;2024-03-17T06:57:43;8.40;99.90
18240;DHT22;9244;50.828;4.718;2024-03-17T07:00:10;8.40;99.90
18240;DHT22;9244;50.828;4.718;2024-03-17T07:02:42;8.50;99.90
18240;DHT22;9244;50.828;4.718;2024-03-17T07:05:12;8.50;99.90
18240;DHT22;9244;50.828;4.718;2024-03-17T07:07:43;8.50;99.90
18240;DHT22;9244;50.828;4.718;2024-03-17T07:10:09;8.60;99.90
18240;DHT22;9244;50.828;4.718;2024-03-17T07:12:37;8.70;99.90
18240;DHT22;9244;50.828;4.718;2024-03-17T07:15:03;8.70;99.90
18240;DHT22;9244;50.828;4.718;2024-03-17T07:17:31;8.80;99.90
18240;DHT22;9244;50.828;4.718;2024-03-17T07:19:56;8.90;99.90
18240;DHT22;9244;50.828;4.718;2024-03-17T07:22:22;9.00;99.90
18240;DHT22;9244;50.828;4.718;2024-03-17T07:24:48;9.10;99.90
18240;DHT22;9244;50.828;4.718;2024-03-17T07:27:17;9.20;99.90
18240;DHT22;9244;50.828;4.718;2024-03-17T07:29:43;9.30;99.90
18240;DHT22;9244;50.828;4.718;2024-03-17T07:32:08;9.30;99.90
18240;DHT22;9244;50.828;4.718;2024-03-17T07:34:34;9.30;99.90
18240;DHT22;9244;50.828;4.718;2024-03-17T07:37:01;9.30;99.90
18240;DHT22;9244;50.828;4.718;2024-03-17T07:39:32;9.30;99.90
18240;DHT22;9244;50.828;4.718;2024-03-17T07:42:01;9.40;99.90
18240;DHT22;9244;50.828;4.718;2024-03-17T07:44:31;9.30;99.90
18240;DHT22;9244;50.828;4.718;2024-03-17T07:47:03;9.40;99.90
18240;DHT22;9244;50.828;4.718;2024-03-17T07:49:31;9.40;99.90
18240;DHT22;9244;50.828;4.718;2024-03-17T07:51:59;9.30;99.90
18240;DHT22;9244;50.828;4.718;2024-03-17T07:54:25;9.40;99.90
18240;DHT22;9244;50.828;4.718;2024-03-17T07:56:54;9.40;99.90
18240;DHT22;9244;50.828;4.718;2024-03-17T07:59:20;9.50;99.90
18240;DHT22;9244;50.828;4.718;2024-03-17T08:01:46;9.60;99.90
18240;DHT22;9244;50.828;4.718;2024-03-17T08:04:12;9.70;99.90
18240;DHT22;9244;50.828;4.718;2024-03-17T08:06:41;9.90;99.90
18240;DHT22;9244;50.828;4.718;2024-03-17T08:09:09;10.10;99.90
18240;DHT22;9244;50.828;4.718;2024-03-17T08:11:36;10.40;99.90
18240;DHT22;9244;50.828;4.718;2024-03-17T08:14:02;10.60;99.90
18240;DHT22;9244;50.828;4.718;2024-03-17T08:16:27;10.90;99.90
18240;DHT22;9244;50.828;4.718;2024-03-17T08:18:57;11.00;99.90
18240;DHT22;9244;50.828;4.718;2024-03-17T08:21:22;11.30;99.90
18240;DHT22;9244;50.828;4.718;2024-03-17T08:23:48;11.70;99.90
18240;DHT22;9244;50.828;4.718;2024-03-17T08:26:14;11.60;99.90
18240;DHT22;9244;50.828;4.718;2024-03-17T08:28:39;11.50;99.90
18240;DHT22;9244;50.828;4.718;2024-03-17T08:31:05;11.40;99.90
18240;DHT22;9244;50.828;4.718;2024-03-17T08:33:31;11.40;99.90
18240;DHT22;9244;50.828;4.718;2024-03-17T08:36:00;11.40;99.90
18240;DHT22;9244;50.828;4.718;2024-03-17T08:38:28;11.40;99.90
18240;DHT22;9244;50.828;4.718;2024-03-17T08:40:55;11.20;99.90
18240;DHT22;9244;50.828;4.718;2024-03-17T08:43:26;11.20;99.90
18240;DHT22;9244;50.828;4.718;2024-03-17T08:45:55;11.40;99.90
18240;DHT22;9244;50.828;4.718;2024-03-17T08:48:24;11.50;99.90
18240;DHT22;9244;50.828;4.718;2024-03-17T08:50:51;11.70;99.90
18240;DHT22;9244;50.828;4.718;2024-03-17T08:53:17;11.90;99.90
18240;DHT22;9244;50.828;4.718;2024-03-17T08:55:45;11.80;99.90
18240;DHT22;9244;50.828;4.718;2024-03-17T08:58:11;11.90;99.90
18240;DHT22;9244;50.828;4.718;2024-03-17T09:00:37;11.70;99.90
18240;DHT22;9244;50.828;4.718;2024-03-17T09:03:03;11.70;99.90
18240;DHT22;9244;50.828;4.718;2024-03-17T09:05:32;11.80;99.90
18240;DHT22;9244;50.828;4.718;2024-03-17T09:08:01;11.60;99.90
18240;DHT22;9244;50.828;4.718;2024-03-17T09:10:26;11.80;99.90
18240;DHT22;9244;50.828;4.718;2024-03-17T09:12:54;11.90;99.90
18240;DHT22;9244;50.828;4.718;2024-03-17T09:15:22;11.80;99.90
18240;DHT22;9244;50.828;4.718;2024-03-17T09:17:48;11.80;99.90
18240;DHT22;9244;50.828;4.718;2024-03-17T09:20:13;11.80;99.90
18240;DHT22;9244;50.828;4.718;2024-03-17T09:22:43;11.70;99.90
18240;DHT22;9244;50.828;4.718;2024-03-17T09:25:09;11.70;99.90
18240;DHT22;9244;50.828;4.718;2024-03-17T09:27:35;11.90;99.90
18240;DHT22;9244;50.828;4.718;2024-03-17T09:30:07;11.90;99.90
18240;DHT22;9244;50.828;4.718;2024-03-17T09:32:35;11.90;99.90
18240;DHT22;9244;50.828;4.718;2024-03-17T09:35:01;11.90;99.90
18240;DHT22;9244;50.828;4.718;2024-03-17T09:37:28;12.00;99.90
18240;DHT22;9244;50.828;4.718;2024-03-17T09:39:57;12.00;99.90
18240;DHT22;9244;50.828;4.718;2024-03-17T09:42:24;12.00;99.90
18240;DHT22;9244;50.828;4.718;2024-03-17T09:44:50;12.00;99.90
18240;DHT22;9244;50.828;4.718;2024-03-17T09:47:21;12.10;99.90
18240;DHT22;9244;50.828;4.718;2024-03-17T09:49:48;12.00;99.90
18240;DHT22;9244;50.828;4.718;2024-03-17T09:52:22;12.10;99.90
18240;DHT22;9244;50.828;4.718;2024-03-17T09:55:09;12.20;99.90
18240;DHT22;9244;50.828;4.718;2024-03-17T09:57:40;12.00;99.90
18240;DHT22;9244;50.828;4.718;2024-03-17T10:00:14;12.20;99.90
18240;DHT22;9244;50.828;4.718;2024-03-17T10:02:44;12.20;99.90
18240;DHT22;9244;50.828;4.718;2024-03-17T10:07:49;12.10;99.90
18240;DHT22;9244;50.828;4.718;2024-03-17T10:10:15;12.10;99.90
18240;DHT22;9244;50.828;4.718;2024-03-17T10:12:50;12.00;99.90
18240;DHT22;9244;50.828;4.718;2024-03-17T10:15:17;12.10;99.90
18240;DHT22;9244;50.828;4.718;2024-03-17T10:17:44;12.20;99.90
18240;DHT22;9244;50.828;4.718;2024-03-17T10:20:20;12.40;99.90
18240;DHT22;9244;50.828;4.718;2024-03-17T10:23:01;12.50;99.90
18240;DHT22;9244;50.828;4.718;2024-03-17T10:25:28;12.70;99.90
18240;DHT22;9244;50.828;4.718;2024-03-17T10:27:55;12.70;99.90
18240;DHT22;9244;50.828;4.718;2024-03-17T10:30:23;12.70;99.90
18240;DHT22;9244;50.828;4.718;2024-03-17T10:32:57;12.90;99.90
18240;DHT22;9244;50.828;4.718;2024-03-17T10:35:32;13.10;99.90
18240;DHT22;9244;50.828;4.718;2024-03-17T10:38:02;13.10;99.90
18240;DHT22;9244;50.828;4.718;2024-03-17T10:40:30;13.10;99.90
18240;DHT22;9244;50.828;4.718;2024-03-17T10:42:58;12.90;99.90
18240;DHT22;9244;50.828;4.718;2024-03-17T10:45:25;13.00;99.90
18240;DHT22;9244;50.828;4.718;2024-03-17T10:47:52;13.00;99.90
18240;DHT22;9244;50.828;4.718;2024-03-17T10:50:24;13.00;99.90
18240;DHT22;9244;50.828;4.718;2024-03-17T10:52:52;13.20;99.90
18240;DHT22;9244;50.828;4.718;2024-03-17T10:55:25;13.50;99.90
18240;DHT22;9244;50.828;4.718;2024-03-17T10:57:54;13.40;99.90
18240;DHT22;9244;50.828;4.718;2024-03-17T11:00:24;13.50;99.90
18240;DHT22;9244;50.828;4.718;2024-03-17T11:02:52;13.50;99.90
18240;DHT22;9244;50.828;4.718;2024-03-17T11:05:28;13.60;99.90
18240;DHT22;9244;50.828;4.718;2024-03-17T11:08:00;13.50;99.90
18240;DHT22;9244;50.828;4.718;2024-03-17T11:10:29;13.40;99.90
18240;DHT22;9244;50.828;4.718;2024-03-17T11:20:38;13.40;99.90
18240;DHT22;9244;50.828;4.718;2024-03-17T11:23:05;13.50;99.90
18240;DHT22;9244;50.828;4.718;2024-03-17T11:25:42;13.30;99.90
18240;DHT22;9244;50.828;4.718;2024-03-17T11:31:31;13.50;99.90
18240;DHT22;9244;50.828;4.718;2024-03-17T11:33:54;13.60;99.90
18240;DHT22;9244;50.828;4.718;2024-03-17T11:38:58;14.20;99.90
18240;DHT22;9244;50.828;4.718;2024-03-17T11:41:36;14.10;99.90
18240;DHT22;9244;50.828;4.718;2024-03-17T11:44:25;14.30;99.90
18240;DHT22;9244;50.828;4.718;2024-03-17T11:47:06;14.50;99.90
18240;DHT22;9244;50.828;4.718;2024-03-17T11:49:35;14.60;99.90
18240;DHT22;9244;50.828;4.718;2024-03-17T11:52:10;14.70;99.90
18240;DHT22;9244;50.828;4.718;2024-03-17T11:54:43;14.80;99.90
18240;DHT22;9244;50.828;4.718;2024-03-17T11:57:21;15.40;99.90
18240;DHT22;9244;50.828;4.718;2024-03-17T11:59:51;16.10;99.90
18240;DHT22;9244;50.828;4.718;2024-03-17T12:02:30;16.90;99.90
18240;DHT22;9244;50.828;4.718;2024-03-17T12:05:01;16.60;99.90
18240;DHT22;9244;50.828;4.718;2024-03-17T12:07:29;16.60;99.90
18240;DHT22;9244;50.828;4.718;2024-03-17T12:09:56;16.60;99.90
18240;DHT22;9244;50.828;4.718;2024-03-17T12:12:27;16.30;99.90
18240;DHT22;9244;50.828;4.718;2024-03-17T12:15:03;16.80;99.90
18240;DHT22;9244;50.828;4.718;2024-03-17T12:17:33;17.50;99.90
18240;DHT22;9244;50.828;4.718;2024-03-17T12:19:59;17.80;99.90
18240;DHT22;9244;50.828;4.718;2024-03-17T12:22:25;17.20;99.90
18240;DHT22;9244;50.828;4.718;2024-03-17T12:24:54;16.70;99.90
18240;DHT22;9244;50.828;4.718;2024-03-17T12:27:25;16.50;99.90
18240;DHT22;9244;50.828;4.718;2024-03-17T12:29:52;15.90;99.90
18240;DHT22;9244;50.828;4.718;2024-03-17T12:32:22;15.70;99.90
18240;DHT22;9244;50.828;4.718;2024-03-17T12:34:52;15.50;99.90
18240;DHT22;9244;50.828;4.718;2024-03-17T12:37:25;15.50;99.90
18240;DHT22;9244;50.828;4.718;2024-03-17T12:39:59;15.30;99.90
18240;DHT22;9244;50.828;4.718;2024-03-17T12:42:29;15.40;99.90
18240;DHT22;9244;50.828;4.718;2024-03-17T12:44:59;15.50;99.90
18240;DHT22;9244;50.828;4.718;2024-03-17T12:47:30;16.10;99.90
18240;DHT22;9244;50.828;4.718;2024-03-17T12:50:00;16.30;99.90
18240;DHT22;9244;50.828;4.718;2024-03-17T12:52:33;16.00;99.90
18240;DHT22;9244;50.828;4.718;2024-03-17T12:55:04;15.80;99.90
18240;DHT22;9244;50.828;4.718;2024-03-17T12:57:50;15.90;99.90
18240;DHT22;9244;50.828;4.718;2024-03-17T13:00:37;16.00;99.90
18240;DHT22;9244;50.828;4.718;2024-03-17T13:05:32;16.10;99.90
18240;DHT22;9244;50.828;4.718;2024-03-17T13:08:00;15.90;99.90
18240;DHT22;9244;50.828;4.718;2024-03-17T13:10:27;15.70;99.90
18240;DHT22;9244;50.828;4.718;2024-03-17T13:13:00;15.70;99.90
18240;DHT22;9244;50.828;4.718;2024-03-17T13:15:27;15.70;99.90
18240;DHT22;9244;50.828;4.718;2024-03-17T13:17:56;15.90;99.90
18240;DHT22;9244;50.828;4.718;2024-03-17T13:20:22;16.20;99.90
18240;DHT22;9244;50.828;4.718;2024-03-17T13:22:48;16.10;99.90
18240;DHT22;9244;50.828;4.718;2024-03-17T13:25:18;16.10;99.90
18240;DHT22;9244;50.828;4.718;2024-03-17T13:27:45;16.10;99.90
18240;DHT22;9244;50.828;4.718;2024-03-17T13:30:15;16.10;99.90
18240;DHT22;9244;50.828;4.718;2024-03-17T13:32:43;15.90;99.90
18240;DHT22;9244;50.828;4.718;2024-03-17T13:35:24;15.60;99.90
18240;DHT22;9244;50.828;4.718;2024-03-17T13:37:52;15.60;99.90
18240;DHT22;9244;50.828;4.718;2024-03-17T13:40:23;15.60;99.90
18240;DHT22;9244;50.828;4.718;2024-03-17T13:42:53;15.60;99.90
18240;DHT22;9244;50.828;4.718;2024-03-17T13:45:20;15.40;99.90
18240;DHT22;9244;50.828;4.718;2024-03-17T13:47:50;15.40;99.90
18240;DHT22;9244;50.828;4.718;2024-03-17T13:50:17;15.50;99.90
18240;DHT22;9244;50.828;4.718;2024-03-17T13:52:43;15.50;99.90
18240;DHT22;9244;50.828;4.718;2024-03-17T13:55:20;15.60;99.90
18240;DHT22;9244;50.828;4.718;2024-03-17T13:57:50;15.50;99.90
18240;DHT22;9244;50.828;4.718;2024-03-17T14:00:26;15.30;99.90
18240;DHT22;9244;50.828;4.718;2024-03-17T14:02:53;15.20;99.90
18240;DHT22;9244;50.828;4.718;2024-03-17T14:05:24;15.10;99.90
18240;DHT22;9244;50.828;4.718;2024-03-17T14:07:55;15.10;99.90
18240;DHT22;9244;50.828;4.718;2024-03-17T14:10:24;15.00;99.90
18240;DHT22;9244;50.828;4.718;2024-03-17T14:12:50;15.00;99.90
18240;DHT22;9244;50.828;4.718;2024-03-17T14:15:16;15.00;99.90
18240;DHT22;9244;50.828;4.718;2024-03-17T14:17:46;15.20;99.90
18240;DHT22;9244;50.828;4.718;2024-03-17T14:20:13;15.40;99.90
18240;DHT22;9244;50.828;4.718;2024-03-17T14:22:40;15.50;99.90
18240;DHT22;9244;50.828;4.718;2024-03-17T14:25:08;15.40;99.90
18240;DHT22;9244;50.828;4.718;2024-03-17T14:27:38;15.20;99.90
18240;DHT22;9244;50.828;4.718;2024-03-17T14:30:04;15.20;99.90
18240;DHT22;9244;50.828;4.718;2024-03-17T14:32:31;15.10;99.90
18240;DHT22;9244;50.828;4.718;2024-03-17T14:34:57;15.10;99.90
18240;DHT22;9244;50.828;4.718;2024-03-17T14:37:22;15.10;99.90
18240;DHT22;9244;50.828;4.718;2024-03-17T14:39:49;14.90;99.90
18240;DHT22;9244;50.828;4.718;2024-03-17T14:42:16;15.00;99.90
18240;DHT22;9244;50.828;4.718;2024-03-17T14:44:42;14.90;99.90
18240;DHT22;9244;50.828;4.718;2024-03-17T14:47:10;14.80;99.90
18240;DHT22;9244;50.828;4.718;2024-03-17T14:49:36;14.80;99.90
18240;DHT22;9244;50.828;4.718;2024-03-17T14:52:02;14.70;99.90
18240;DHT22;9244;50.828;4.718;2024-03-17T14:54:28;14.60;99.90
18240;DHT22;9244;50.828;4.718;2024-03-17T14:56:53;14.60;99.90
18240;DHT22;9244;50.828;4.718;2024-03-17T14:59:20;14.40;99.90
18240;DHT22;9244;50.828;4.718;2024-03-17T15:01:48;14.30;99.90
18240;DHT22;9244;50.828;4.718;2024-03-17T15:04:14;14.20;99.90
18240;DHT22;9244;50.828;4.718;2024-03-17T15:06:41;14.20;99.90
18240;DHT22;9244;50.828;4.718;2024-03-17T15:09:08;14.20;99.90
18240;DHT22;9244;50.828;4.718;2024-03-17T15:11:33;14.10;99.90
18240;DHT22;9244;50.828;4.718;2024-03-17T15:13:59;14.10;99.90
18240;DHT22;9244;50.828;4.718;2024-03-17T15:16:24;14.20;99.90
18240;DHT22;9244;50.828;4.718;2024-03-17T15:18:50;14.20;99.90
18240;DHT22;9244;50.828;4.718;2024-03-17T15:21:18;14.30;99.90
18240;DHT22;9244;50.828;4.718;2024-03-17T15:23:46;14.40;99.90
18240;DHT22;9244;50.828;4.718;2024-03-17T15:26:13;14.30;99.90
18240;DHT22;9244;50.828;4.718;2024-03-17T15:28:45;14.40;99.90
18240;DHT22;9244;50.828;4.718;2024-03-17T15:31:11;14.30;99.90
18240;DHT22;9244;50.828;4.718;2024-03-17T15:33:38;14.30;99.90
18240;DHT22;9244;50.828;4.718;2024-03-17T15:36:09;14.30;99.90
18240;DHT22;9244;50.828;4.718;2024-03-17T15:38:38;14.30;99.90
18240;DHT22;9244;50.828;4.718;2024-03-17T15:41:05;14.20;99.90
18240;DHT22;9244;50.828;4.718;2024-03-17T15:43:37;14.20;99.90
18240;DHT22;9244;50.828;4.718;2024-03-17T15:46:15;14.10;99.90
18240;DHT22;9244;50.828;4.718;2024-03-17T15:48:43;14.10;99.90
18240;DHT22;9244;50.828;4.718;2024-03-17T15:51:09;14.00;99.90
18240;DHT22;9244;50.828;4.718;2024-03-17T15:53:35;14.00;99.90
18240;DHT22;9244;50.828;4.718;2024-03-17T15:56:02;13.90;99.90
18240;DHT22;9244;50.828;4.718;2024-03-17T15:58:29;13.80;99.90
18240;DHT22;9244;50.828;4.718;2024-03-17T16:00:55;13.70;99.90
18240;DHT22;9244;50.828;4.718;2024-03-17T16:03:32;13.70;99.90
18240;DHT22;9244;50.828;4.718;2024-03-17T16:06:13;13.60;99.90
18240;DHT22;9244;50.828;4.718;2024-03-17T16:08:44;13.60;99.90
18240;DHT22;9244;50.828;4.718;2024-03-17T16:11:11;13.60;99.90
18240;DHT22;9244;50.828;4.718;2024-03-17T16:13:40;13.50;99.90
18240;DHT22;9244;50.828;4.718;2024-03-17T16:16:07;13.50;99.90
18240;DHT22;9244;50.828;4.718;2024-03-17T16:18:36;13.50;99.90